Terminal Aerodrome Forecast
Issued by NWS

Current Version | Previous Version | Text Only | Print | Product List | Glossary On
Versions: 1 2 3 4 5 6 7 8 9 10 11 12 13 14 15
000 FTUS41 KILN 200520 TAFLCK TAF KLCK 200520Z 2006/2106 35006KT P6SM SKC FM200900 VRB03KT P6SM SKC FM201400 34007KT P6SM SKC FM210300 04004KT P6SM SKC=

USA.gov is the U.S. government's official web portal to all federal, state and local government web resources and services.